sensor_id;sensor_type;location;lat;lon;timestamp;pressure;altitude;pressure_sealevel;temperature
65290;BMP180;51893;59.754;10.110;2022-08-01T00:00:09;100951.60;;;17.40
65290;BMP180;51893;59.754;10.110;2022-08-01T00:02:57;100948.40;;;17.30
65290;BMP180;51893;59.754;10.110;2022-08-01T00:05:25;100947.00;;;17.30
65290;BMP180;51893;59.754;10.110;2022-08-01T00:07:53;100947.40;;;17.20
65290;BMP180;51893;59.754;10.110;2022-08-01T00:10:22;100940.00;;;17.10
65290;BMP180;51893;59.754;10.110;2022-08-01T00:12:49;100931.00;;;17.10
65290;BMP180;51893;59.754;10.110;2022-08-01T00:15:17;100932.40;;;17.10
65290;BMP180;51893;59.754;10.110;2022-08-01T00:17:45;100936.80;;;17.10
65290;BMP180;51893;59.754;10.110;2022-08-01T00:20:15;100938.20;;;17.10
65290;BMP180;51893;59.754;10.110;2022-08-01T00:22:43;100932.40;;;17.20
65290;BMP180;51893;59.754;10.110;2022-08-01T00:25:10;100927.80;;;17.14
65290;BMP180;51893;59.754;10.110;2022-08-01T00:27:38;100926.80;;;17.10
65290;BMP180;51893;59.754;10.110;2022-08-01T00:30:07;100928.80;;;17.10
65290;BMP180;51893;59.754;10.110;2022-08-01T00:32:43;100927.60;;;17.10
65290;BMP180;51893;59.754;10.110;2022-08-01T00:35:11;100925.80;;;17.10
65290;BMP180;51893;59.754;10.110;2022-08-01T00:37:40;100924.00;;;17.10
65290;BMP180;51893;59.754;10.110;2022-08-01T00:40:08;100925.20;;;17.00
65290;BMP180;51893;59.754;10.110;2022-08-01T00:42:36;100917.00;;;16.90
65290;BMP180;51893;59.754;10.110;2022-08-01T00:45:11;100917.40;;;16.90
65290;BMP180;51893;59.754;10.110;2022-08-01T00:47:39;100912.40;;;16.80
65290;BMP180;51893;59.754;10.110;2022-08-01T00:50:08;100908.20;;;16.80
65290;BMP180;51893;59.754;10.110;2022-08-01T00:52:39;100905.60;;;16.80
65290;BMP180;51893;59.754;10.110;2022-08-01T00:55:10;100907.00;;;16.80
65290;BMP180;51893;59.754;10.110;2022-08-01T00:57:42;100905.00;;;16.80
65290;BMP180;51893;59.754;10.110;2022-08-01T01:00:30;100905.00;;;16.90
65290;BMP180;51893;59.754;10.110;2022-08-01T01:03:02;100902.20;;;16.80
65290;BMP180;51893;59.754;10.110;2022-08-01T01:05:45;100903.60;;;16.70
65290;BMP180;51893;59.754;10.110;2022-08-01T01:08:24;100898.00;;;16.60
65290;BMP180;51893;59.754;10.110;2022-08-01T01:11:03;100897.00;;;16.60
65290;BMP180;51893;59.754;10.110;2022-08-01T01:13:45;100896.80;;;16.50
65290;BMP180;51893;59.754;10.110;2022-08-01T01:16:19;100900.60;;;16.50
65290;BMP180;51893;59.754;10.110;2022-08-01T01:18:53;100890.20;;;16.40
65290;BMP180;51893;59.754;10.110;2022-08-01T01:24:16;100891.60;;;16.40
65290;BMP180;51893;59.754;10.110;2022-08-01T01:29:32;100898.20;;;16.40
65290;BMP180;51893;59.754;10.110;2022-08-01T01:32:35;100892.40;;;16.40
65290;BMP180;51893;59.754;10.110;2022-08-01T01:35:11;100896.20;;;16.40
65290;BMP180;51893;59.754;10.110;2022-08-01T01:37:42;100898.80;;;16.38
65290;BMP180;51893;59.754;10.110;2022-08-01T01:40:12;100902.00;;;16.40
65290;BMP180;51893;59.754;10.110;2022-08-01T01:42:44;100905.80;;;16.30
65290;BMP180;51893;59.754;10.110;2022-08-01T01:45:14;100901.20;;;16.30
65290;BMP180;51893;59.754;10.110;2022-08-01T01:47:45;100902.60;;;16.30
65290;BMP180;51893;59.754;10.110;2022-08-01T01:50:14;100899.20;;;16.30
65290;BMP180;51893;59.754;10.110;2022-08-01T01:52:44;100897.40;;;16.20
65290;BMP180;51893;59.754;10.110;2022-08-01T01:55:15;100894.20;;;16.20
65290;BMP180;51893;59.754;10.110;2022-08-01T01:57:44;100890.80;;;16.20
65290;BMP180;51893;59.754;10.110;2022-08-01T02:00:15;100893.60;;;16.14
65290;BMP180;51893;59.754;10.110;2022-08-01T02:02:44;100891.80;;;16.10
65290;BMP180;51893;59.754;10.110;2022-08-01T02:05:14;100892.40;;;16.10
65290;BMP180;51893;59.754;10.110;2022-08-01T02:07:43;100889.00;;;16.18
65290;BMP180;51893;59.754;10.110;2022-08-01T02:10:16;100887.00;;;16.20
65290;BMP180;51893;59.754;10.110;2022-08-01T02:12:48;100884.40;;;16.20
65290;BMP180;51893;59.754;10.110;2022-08-01T02:15:19;100883.60;;;16.20
65290;BMP180;51893;59.754;10.110;2022-08-01T02:17:49;100883.20;;;16.20
65290;BMP180;51893;59.754;10.110;2022-08-01T02:20:18;100878.40;;;16.10
65290;BMP180;51893;59.754;10.110;2022-08-01T02:22:53;100876.60;;;16.10
65290;BMP180;51893;59.754;10.110;2022-08-01T02:25:46;100878.20;;;16.10
65290;BMP180;51893;59.754;10.110;2022-08-01T02:28:47;100874.80;;;16.10
65290;BMP180;51893;59.754;10.110;2022-08-01T02:31:22;100875.00;;;16.10
65290;BMP180;51893;59.754;10.110;2022-08-01T02:34:00;100872.20;;;16.10
65290;BMP180;51893;59.754;10.110;2022-08-01T02:36:34;100868.80;;;16.10
65290;BMP180;51893;59.754;10.110;2022-08-01T02:39:11;100871.60;;;16.10
65290;BMP180;51893;59.754;10.110;2022-08-01T02:41:44;100874.00;;;16.10
65290;BMP180;51893;59.754;10.110;2022-08-01T02:44:23;100875.20;;;16.10
65290;BMP180;51893;59.754;10.110;2022-08-01T02:47:01;100869.00;;;16.10
65290;BMP180;51893;59.754;10.110;2022-08-01T02:49:38;100867.60;;;16.10
65290;BMP180;51893;59.754;10.110;2022-08-01T02:52:10;100871.40;;;16.10
65290;BMP180;51893;59.754;10.110;2022-08-01T02:54:41;100875.60;;;16.10
65290;BMP180;51893;59.754;10.110;2022-08-01T02:57:11;100878.60;;;16.12
65290;BMP180;51893;59.754;10.110;2022-08-01T02:59:42;100875.80;;;16.20
65290;BMP180;51893;59.754;10.110;2022-08-01T03:02:12;100875.00;;;16.20
65290;BMP180;51893;59.754;10.110;2022-08-01T03:04:42;100874.60;;;16.20
65290;BMP180;51893;59.754;10.110;2022-08-01T03:07:13;100875.80;;;16.20
65290;BMP180;51893;59.754;10.110;2022-08-01T03:09:45;100870.20;;;16.18
65290;BMP180;51893;59.754;10.110;2022-08-01T03:12:18;100863.80;;;16.20
65290;BMP180;51893;59.754;10.110;2022-08-01T03:14:49;100864.20;;;16.20
65290;BMP180;51893;59.754;10.110;2022-08-01T03:17:21;100865.00;;;16.20
65290;BMP180;51893;59.754;10.110;2022-08-01T03:19:52;100866.40;;;16.30
65290;BMP180;51893;59.754;10.110;2022-08-01T03:22:24;100862.60;;;16.30
65290;BMP180;51893;59.754;10.110;2022-08-01T03:24:56;100858.20;;;16.32
65290;BMP180;51893;59.754;10.110;2022-08-01T03:27:27;100853.40;;;16.40
65290;BMP180;51893;59.754;10.110;2022-08-01T03:29:58;100854.80;;;16.40
65290;BMP180;51893;59.754;10.110;2022-08-01T03:32:28;100859.20;;;16.40
65290;BMP180;51893;59.754;10.110;2022-08-01T03:34:57;100864.00;;;16.40
65290;BMP180;51893;59.754;10.110;2022-08-01T03:37:31;100863.60;;;16.42
65290;BMP180;51893;59.754;10.110;2022-08-01T03:40:08;100860.20;;;16.40
65290;BMP180;51893;59.754;10.110;2022-08-01T03:42:44;100866.20;;;16.42
65290;BMP180;51893;59.754;10.110;2022-08-01T03:45:23;100869.20;;;16.40
65290;BMP180;51893;59.754;10.110;2022-08-01T03:47:59;100875.20;;;16.30
65290;BMP180;51893;59.754;10.110;2022-08-01T03:50:29;100878.20;;;16.14
65290;BMP180;51893;59.754;10.110;2022-08-01T03:53:03;100876.80;;;16.00
65290;BMP180;51893;59.754;10.110;2022-08-01T03:55:33;100872.40;;;16.00
65290;BMP180;51893;59.754;10.110;2022-08-01T03:58:05;100875.00;;;16.00
65290;BMP180;51893;59.754;10.110;2022-08-01T04:00:37;100873.00;;;16.10
65290;BMP180;51893;59.754;10.110;2022-08-01T04:03:11;100876.20;;;16.10
65290;BMP180;51893;59.754;10.110;2022-08-01T04:05:43;100883.40;;;16.20
65290;BMP180;51893;59.754;10.110;2022-08-01T04:08:11;100877.20;;;16.28
65290;BMP180;51893;59.754;10.110;2022-08-01T04:10:39;100877.60;;;16.30
65290;BMP180;51893;59.754;10.110;2022-08-01T04:13:07;100885.20;;;16.40
65290;BMP180;51893;59.754;10.110;2022-08-01T04:15:35;100888.40;;;16.40
65290;BMP180;51893;59.754;10.110;2022-08-01T04:18:02;100885.00;;;16.40
65290;BMP180;51893;59.754;10.110;2022-08-01T04:20:31;100889.20;;;16.40
65290;BMP180;51893;59.754;10.110;2022-08-01T04:22:58;100889.40;;;16.40
65290;BMP180;51893;59.754;10.110;2022-08-01T04:25:34;100890.00;;;16.40
65290;BMP180;51893;59.754;10.110;2022-08-01T04:28:07;100888.60;;;16.42
65290;BMP180;51893;59.754;10.110;2022-08-01T04:30:40;100887.80;;;16.40
65290;BMP180;51893;59.754;10.110;2022-08-01T04:33:10;100891.20;;;16.50
65290;BMP180;51893;59.754;10.110;2022-08-01T04:35:43;100893.00;;;16.50
65290;BMP180;51893;59.754;10.110;2022-08-01T04:38:34;100891.00;;;16.50
65290;BMP180;51893;59.754;10.110;2022-08-01T04:41:08;100889.40;;;16.50
65290;BMP180;51893;59.754;10.110;2022-08-01T04:43:38;100887.40;;;16.50
65290;BMP180;51893;59.754;10.110;2022-08-01T04:46:07;100885.80;;;16.50
65290;BMP180;51893;59.754;10.110;2022-08-01T04:48:40;100885.80;;;16.40
65290;BMP180;51893;59.754;10.110;2022-08-01T04:51:14;100881.40;;;16.30
65290;BMP180;51893;59.754;10.110;2022-08-01T04:53:45;100875.60;;;16.30
65290;BMP180;51893;59.754;10.110;2022-08-01T04:56:16;100868.80;;;16.30
65290;BMP180;51893;59.754;10.110;2022-08-01T04:58:44;100867.20;;;16.40
65290;BMP180;51893;59.754;10.110;2022-08-01T05:01:13;100862.00;;;16.40
65290;BMP180;51893;59.754;10.110;2022-08-01T05:03:41;100859.00;;;16.50
65290;BMP180;51893;59.754;10.110;2022-08-01T05:06:09;100859.00;;;16.50
65290;BMP180;51893;59.754;10.110;2022-08-01T05:08:37;100857.00;;;16.50
65290;BMP180;51893;59.754;10.110;2022-08-01T05:11:04;100857.20;;;16.60
65290;BMP180;51893;59.754;10.110;2022-08-01T05:13:32;100858.00;;;16.60
65290;BMP180;51893;59.754;10.110;2022-08-01T05:16:00;100865.20;;;16.70
65290;BMP180;51893;59.754;10.110;2022-08-01T05:18:31;100865.20;;;16.70
65290;BMP180;51893;59.754;10.110;2022-08-01T05:20:59;100866.00;;;16.70
65290;BMP180;51893;59.754;10.110;2022-08-01T05:23:27;100870.80;;;16.70
65290;BMP180;51893;59.754;10.110;2022-08-01T05:26:11;100867.20;;;16.70
65290;BMP180;51893;59.754;10.110;2022-08-01T05:28:41;100868.40;;;16.70
65290;BMP180;51893;59.754;10.110;2022-08-01T05:31:10;100866.00;;;16.70
65290;BMP180;51893;59.754;10.110;2022-08-01T05:33:37;100867.60;;;16.70
65290;BMP180;51893;59.754;10.110;2022-08-01T05:36:05;100864.20;;;16.80
65290;BMP180;51893;59.754;10.110;2022-08-01T05:38:33;100863.00;;;16.80
65290;BMP180;51893;59.754;10.110;2022-08-01T05:41:01;100862.80;;;16.80
65290;BMP180;51893;59.754;10.110;2022-08-01T05:43:29;100867.20;;;16.90
65290;BMP180;51893;59.754;10.110;2022-08-01T05:45:56;100862.40;;;17.00
65290;BMP180;51893;59.754;10.110;2022-08-01T05:48:25;100866.80;;;17.00
65290;BMP180;51893;59.754;10.110;2022-08-01T05:50:54;100867.20;;;17.10
65290;BMP180;51893;59.754;10.110;2022-08-01T05:53:26;100870.80;;;17.10
65290;BMP180;51893;59.754;10.110;2022-08-01T05:55:54;100882.40;;;17.00
65290;BMP180;51893;59.754;10.110;2022-08-01T05:58:22;100886.80;;;16.94
65290;BMP180;51893;59.754;10.110;2022-08-01T06:00:50;100892.20;;;16.90
65290;BMP180;51893;59.754;10.110;2022-08-01T06:03:18;100895.20;;;16.82
65290;BMP180;51893;59.754;10.110;2022-08-01T06:05:46;100894.60;;;16.80
65290;BMP180;51893;59.754;10.110;2022-08-01T06:08:14;100895.80;;;16.78
65290;BMP180;51893;59.754;10.110;2022-08-01T06:10:42;100898.20;;;16.70
65290;BMP180;51893;59.754;10.110;2022-08-01T06:13:10;100897.60;;;16.70
65290;BMP180;51893;59.754;10.110;2022-08-01T06:15:38;100899.00;;;16.70
65290;BMP180;51893;59.754;10.110;2022-08-01T06:18:06;100898.40;;;16.70
65290;BMP180;51893;59.754;10.110;2022-08-01T06:20:34;100898.80;;;16.70
65290;BMP180;51893;59.754;10.110;2022-08-01T06:23:01;100900.60;;;16.80
65290;BMP180;51893;59.754;10.110;2022-08-01T06:25:53;100901.80;;;16.80
65290;BMP180;51893;59.754;10.110;2022-08-01T06:28:22;100910.20;;;16.90
65290;BMP180;51893;59.754;10.110;2022-08-01T06:30:50;100908.60;;;17.00
65290;BMP180;51893;59.754;10.110;2022-08-01T06:33:19;100916.00;;;17.00
65290;BMP180;51893;59.754;10.110;2022-08-01T06:35:47;100915.20;;;16.98
65290;BMP180;51893;59.754;10.110;2022-08-01T06:38:15;100919.80;;;16.90
65290;BMP180;51893;59.754;10.110;2022-08-01T06:40:43;100920.60;;;16.90
65290;BMP180;51893;59.754;10.110;2022-08-01T06:43:11;100925.40;;;16.90
65290;BMP180;51893;59.754;10.110;2022-08-01T06:45:40;100927.00;;;17.00
65290;BMP180;51893;59.754;10.110;2022-08-01T06:48:08;100932.80;;;17.00
65290;BMP180;51893;59.754;10.110;2022-08-01T06:50:36;100935.80;;;17.00
65290;BMP180;51893;59.754;10.110;2022-08-01T06:53:04;100943.00;;;17.02
65290;BMP180;51893;59.754;10.110;2022-08-01T06:55:32;100949.40;;;17.10
65290;BMP180;51893;59.754;10.110;2022-08-01T06:58:00;100954.40;;;17.12
65290;BMP180;51893;59.754;10.110;2022-08-01T07:00:27;100960.60;;;17.10
65290;BMP180;51893;59.754;10.110;2022-08-01T07:02:58;100970.40;;;17.00
65290;BMP180;51893;59.754;10.110;2022-08-01T07:05:27;100968.40;;;17.00
65290;BMP180;51893;59.754;10.110;2022-08-01T07:07:59;100978.00;;;16.90
65290;BMP180;51893;59.754;10.110;2022-08-01T07:10:26;100979.20;;;16.90
65290;BMP180;51893;59.754;10.110;2022-08-01T07:12:54;100981.00;;;16.80
65290;BMP180;51893;59.754;10.110;2022-08-01T07:15:22;100983.60;;;16.70
65290;BMP180;51893;59.754;10.110;2022-08-01T07:17:54;100986.40;;;16.70
65290;BMP180;51893;59.754;10.110;2022-08-01T07:20:22;100987.00;;;16.78
65290;BMP180;51893;59.754;10.110;2022-08-01T07:22:50;100987.80;;;16.80
65290;BMP180;51893;59.754;10.110;2022-08-01T07:25:17;100992.60;;;16.80
65290;BMP180;51893;59.754;10.110;2022-08-01T07:27:45;100992.80;;;16.80
65290;BMP180;51893;59.754;10.110;2022-08-01T07:30:14;100994.40;;;16.80
65290;BMP180;51893;59.754;10.110;2022-08-01T07:32:41;100998.80;;;16.80
65290;BMP180;51893;59.754;10.110;2022-08-01T07:35:09;101003.00;;;16.80
65290;BMP180;51893;59.754;10.110;2022-08-01T07:37:37;100999.00;;;16.80
65290;BMP180;51893;59.754;10.110;2022-08-01T07:40:17;100997.80;;;16.80
65290;BMP180;51893;59.754;10.110;2022-08-01T07:42:46;100997.80;;;16.90
65290;BMP180;51893;59.754;10.110;2022-08-01T07:45:15;101000.00;;;17.00
65290;BMP180;51893;59.754;10.110;2022-08-01T07:47:44;101000.80;;;17.00
65290;BMP180;51893;59.754;10.110;2022-08-01T07:50:12;100997.80;;;17.10
65290;BMP180;51893;59.754;10.110;2022-08-01T07:52:40;100998.60;;;17.20
65290;BMP180;51893;59.754;10.110;2022-08-01T07:55:10;100998.60;;;17.26
65290;BMP180;51893;59.754;10.110;2022-08-01T07:57:43;100998.40;;;17.20
65290;BMP180;51893;59.754;10.110;2022-08-01T08:00:12;100998.80;;;17.20
65290;BMP180;51893;59.754;10.110;2022-08-01T08:02:41;100998.60;;;17.20
65290;BMP180;51893;59.754;10.110;2022-08-01T08:05:09;101001.80;;;17.30
65290;BMP180;51893;59.754;10.110;2022-08-01T08:07:38;101005.20;;;17.30
65290;BMP180;51893;59.754;10.110;2022-08-01T08:10:07;101003.40;;;17.50
65290;BMP180;51893;59.754;10.110;2022-08-01T08:12:35;100996.00;;;17.60
65290;BMP180;51893;59.754;10.110;2022-08-01T08:15:03;100998.00;;;17.70
65290;BMP180;51893;59.754;10.110;2022-08-01T08:17:33;101006.20;;;17.90
65290;BMP180;51893;59.754;10.110;2022-08-01T08:20:07;101003.20;;;18.00
65290;BMP180;51893;59.754;10.110;2022-08-01T08:22:36;101002.00;;;18.10
65290;BMP180;51893;59.754;10.110;2022-08-01T08:25:06;101009.00;;;18.30
65290;BMP180;51893;59.754;10.110;2022-08-01T08:27:36;101014.00;;;18.40
65290;BMP180;51893;59.754;10.110;2022-08-01T08:30:06;101007.00;;;18.40
65290;BMP180;51893;59.754;10.110;2022-08-01T08:32:39;101008.80;;;18.40
65290;BMP180;51893;59.754;10.110;2022-08-01T08:35:08;101011.20;;;18.40
65290;BMP180;51893;59.754;10.110;2022-08-01T08:37:39;101015.60;;;18.40
65290;BMP180;51893;59.754;10.110;2022-08-01T08:40:15;101015.60;;;18.30
65290;BMP180;51893;59.754;10.110;2022-08-01T08:42:44;101017.80;;;18.30
65290;BMP180;51893;59.754;10.110;2022-08-01T08:45:13;101021.60;;;18.30
65290;BMP180;51893;59.754;10.110;2022-08-01T08:47:43;101022.20;;;18.40
65290;BMP180;51893;59.754;10.110;2022-08-01T08:50:11;101018.20;;;18.50
65290;BMP180;51893;59.754;10.110;2022-08-01T08:52:40;101021.80;;;18.70
65290;BMP180;51893;59.754;10.110;2022-08-01T08:55:11;101022.00;;;18.82
65290;BMP180;51893;59.754;10.110;2022-08-01T08:57:44;101023.60;;;19.08
65290;BMP180;51893;59.754;10.110;2022-08-01T09:00:14;101028.40;;;19.20
65290;BMP180;51893;59.754;10.110;2022-08-01T09:02:45;101031.80;;;19.24
65290;BMP180;51893;59.754;10.110;2022-08-01T09:05:14;101021.60;;;19.30
65290;BMP180;51893;59.754;10.110;2022-08-01T09:07:46;101027.00;;;19.44
65290;BMP180;51893;59.754;10.110;2022-08-01T09:10:14;101029.60;;;19.60
65290;BMP180;51893;59.754;10.110;2022-08-01T09:13:10;101037.00;;;19.70
65290;BMP180;51893;59.754;10.110;2022-08-01T09:15:47;101042.00;;;19.70
65290;BMP180;51893;59.754;10.110;2022-08-01T09:18:37;101038.20;;;19.60
65290;BMP180;51893;59.754;10.110;2022-08-01T09:21:17;101042.20;;;19.42
65290;BMP180;51893;59.754;10.110;2022-08-01T09:23:51;101045.80;;;19.48
65290;BMP180;51893;59.754;10.110;2022-08-01T09:26:31;101053.60;;;19.40
65290;BMP180;51893;59.754;10.110;2022-08-01T09:29:05;101044.60;;;19.48
65290;BMP180;51893;59.754;10.110;2022-08-01T09:31:42;101045.80;;;19.58
65290;BMP180;51893;59.754;10.110;2022-08-01T09:34:16;101046.40;;;19.70
65290;BMP180;51893;59.754;10.110;2022-08-01T09:36:56;101050.80;;;19.70
65290;BMP180;51893;59.754;10.110;2022-08-01T09:39:27;101048.20;;;19.70
65290;BMP180;51893;59.754;10.110;2022-08-01T09:41:58;101045.40;;;19.90
65290;BMP180;51893;59.754;10.110;2022-08-01T09:44:56;101045.40;;;20.20
65290;BMP180;51893;59.754;10.110;2022-08-01T09:47:40;101057.80;;;20.40
65290;BMP180;51893;59.754;10.110;2022-08-01T09:50:10;101061.80;;;20.50
65290;BMP180;51893;59.754;10.110;2022-08-01T09:52:38;101062.40;;;20.66
65290;BMP180;51893;59.754;10.110;2022-08-01T09:55:09;101062.60;;;20.80
65290;BMP180;51893;59.754;10.110;2022-08-01T09:57:37;101075.20;;;20.58
65290;BMP180;51893;59.754;10.110;2022-08-01T10:00:17;101078.80;;;20.30
65290;BMP180;51893;59.754;10.110;2022-08-01T10:03:24;101074.00;;;20.16
65290;BMP180;51893;59.754;10.110;2022-08-01T10:05:53;101075.60;;;20.10
65290;BMP180;51893;59.754;10.110;2022-08-01T10:08:21;101075.60;;;20.20
65290;BMP180;51893;59.754;10.110;2022-08-01T10:11:10;101074.60;;;20.20
65290;BMP180;51893;59.754;10.110;2022-08-01T10:13:39;101082.60;;;20.20
65290;BMP180;51893;59.754;10.110;2022-08-01T10:16:09;101079.60;;;20.20
65290;BMP180;51893;59.754;10.110;2022-08-01T10:18:45;101080.40;;;20.20
65290;BMP180;51893;59.754;10.110;2022-08-01T10:21:14;101083.60;;;20.10
65290;BMP180;51893;59.754;10.110;2022-08-01T10:24:03;101086.80;;;20.06
65290;BMP180;51893;59.754;10.110;2022-08-01T10:26:34;101087.00;;;20.02
65290;BMP180;51893;59.754;10.110;2022-08-01T10:29:07;101084.20;;;20.10
65290;BMP180;51893;59.754;10.110;2022-08-01T10:31:56;101088.40;;;20.10
65290;BMP180;51893;59.754;10.110;2022-08-01T10:34:28;101088.60;;;20.10
65290;BMP180;51893;59.754;10.110;2022-08-01T10:36:57;101089.60;;;20.16
65290;BMP180;51893;59.754;10.110;2022-08-01T10:39:28;101084.60;;;20.20
65290;BMP180;51893;59.754;10.110;2022-08-01T10:42:01;101079.80;;;20.20
65290;BMP180;51893;59.754;10.110;2022-08-01T10:44:31;101082.60;;;20.40
65290;BMP180;51893;59.754;10.110;2022-08-01T10:47:15;101092.20;;;20.40
65290;BMP180;51893;59.754;10.110;2022-08-01T10:50:13;101090.80;;;20.50
65290;BMP180;51893;59.754;10.110;2022-08-01T10:53:20;101094.00;;;20.50
65290;BMP180;51893;59.754;10.110;2022-08-01T10:56:03;101093.00;;;20.50
65290;BMP180;51893;59.754;10.110;2022-08-01T10:58:38;101096.00;;;20.50
65290;BMP180;51893;59.754;10.110;2022-08-01T11:03:58;101081.80;;;20.70
65290;BMP180;51893;59.754;10.110;2022-08-01T11:09:29;101068.80;;;21.40
65290;BMP180;51893;59.754;10.110;2022-08-01T11:12:12;101078.80;;;21.60
65290;BMP180;51893;59.754;10.110;2022-08-01T11:17:41;101101.20;;;21.70
65290;BMP180;51893;59.754;10.110;2022-08-01T11:20:22;101107.20;;;21.60
65290;BMP180;51893;59.754;10.110;2022-08-01T11:28:26;101120.60;;;21.12
65290;BMP180;51893;59.754;10.110;2022-08-01T11:38:48;101126.60;;;21.00
65290;BMP180;51893;59.754;10.110;2022-08-01T11:41:24;101125.20;;;21.10
65290;BMP180;51893;59.754;10.110;2022-08-01T11:44:13;101119.20;;;21.46
65290;BMP180;51893;59.754;10.110;2022-08-01T11:46:57;101118.40;;;21.74
65290;BMP180;51893;59.754;10.110;2022-08-01T11:49:34;101129.80;;;22.00
65290;BMP180;51893;59.754;10.110;2022-08-01T11:52:26;101130.40;;;22.00
65290;BMP180;51893;59.754;10.110;2022-08-01T11:55:07;101128.60;;;22.12
65290;BMP180;51893;59.754;10.110;2022-08-01T11:57:38;101129.80;;;22.30
65290;BMP180;51893;59.754;10.110;2022-08-01T12:00:16;101130.60;;;22.20
65290;BMP180;51893;59.754;10.110;2022-08-01T12:02:59;101118.80;;;22.20
65290;BMP180;51893;59.754;10.110;2022-08-01T12:05:34;101110.80;;;22.50
65290;BMP180;51893;59.754;10.110;2022-08-01T12:08:10;101111.20;;;22.90
65290;BMP180;51893;59.754;10.110;2022-08-01T12:10:38;101120.40;;;23.12
65290;BMP180;51893;59.754;10.110;2022-08-01T12:13:16;101127.20;;;23.20
65290;BMP180;51893;59.754;10.110;2022-08-01T12:15:46;101127.60;;;23.20
65290;BMP180;51893;59.754;10.110;2022-08-01T12:18:19;101123.40;;;23.32
65290;BMP180;51893;59.754;10.110;2022-08-01T12:20:48;101124.60;;;23.60
65290;BMP180;51893;59.754;10.110;2022-08-01T12:23:23;101125.20;;;23.86
65290;BMP180;51893;59.754;10.110;2022-08-01T12:25:53;101124.80;;;23.94
65290;BMP180;51893;59.754;10.110;2022-08-01T12:28:21;101137.60;;;23.80
65290;BMP180;51893;59.754;10.110;2022-08-01T12:30:50;101143.20;;;23.78
65290;BMP180;51893;59.754;10.110;2022-08-01T12:33:20;101149.20;;;23.70
65290;BMP180;51893;59.754;10.110;2022-08-01T12:35:48;101142.60;;;23.72
65290;BMP180;51893;59.754;10.110;2022-08-01T12:38:20;101138.00;;;23.80
65290;BMP180;51893;59.754;10.110;2022-08-01T12:40:49;101144.00;;;23.80
65290;BMP180;51893;59.754;10.110;2022-08-01T12:43:22;101145.20;;;23.80
65290;BMP180;51893;59.754;10.110;2022-08-01T12:45:59;101140.40;;;23.50
65290;BMP180;51893;59.754;10.110;2022-08-01T12:48:30;101137.80;;;23.30
65290;BMP180;51893;59.754;10.110;2022-08-01T12:50:59;101133.80;;;23.40
65290;BMP180;51893;59.754;10.110;2022-08-01T12:53:34;101136.20;;;23.50
65290;BMP180;51893;59.754;10.110;2022-08-01T12:56:09;101136.00;;;23.60
65290;BMP180;51893;59.754;10.110;2022-08-01T12:58:39;101140.80;;;23.54
65290;BMP180;51893;59.754;10.110;2022-08-01T13:01:11;101141.00;;;23.40
65290;BMP180;51893;59.754;10.110;2022-08-01T13:03:40;101137.60;;;23.30
65290;BMP180;51893;59.754;10.110;2022-08-01T13:06:13;101146.60;;;23.30
65290;BMP180;51893;59.754;10.110;2022-08-01T13:08:44;101142.20;;;23.10
65290;BMP180;51893;59.754;10.110;2022-08-01T13:11:14;101145.60;;;23.00
65290;BMP180;51893;59.754;10.110;2022-08-01T13:13:52;101141.80;;;22.90
65290;BMP180;51893;59.754;10.110;2022-08-01T13:16:24;101150.40;;;22.80
65290;BMP180;51893;59.754;10.110;2022-08-01T13:19:12;101148.40;;;22.60
65290;BMP180;51893;59.754;10.110;2022-08-01T13:21:56;101139.80;;;22.54
65290;BMP180;51893;59.754;10.110;2022-08-01T13:24:28;101146.40;;;22.60
65290;BMP180;51893;59.754;10.110;2022-08-01T13:27:00;101138.40;;;22.72
65290;BMP180;51893;59.754;10.110;2022-08-01T13:29:37;101128.20;;;23.06
65290;BMP180;51893;59.754;10.110;2022-08-01T13:32:18;101123.60;;;23.38
65290;BMP180;51893;59.754;10.110;2022-08-01T13:35:05;101122.60;;;23.70
65290;BMP180;51893;59.754;10.110;2022-08-01T13:37:33;101129.40;;;24.00
65290;BMP180;51893;59.754;10.110;2022-08-01T13:40:04;101126.00;;;23.92
65290;BMP180;51893;59.754;10.110;2022-08-01T13:42:33;101126.60;;;24.10
65290;BMP180;51893;59.754;10.110;2022-08-01T13:45:03;101129.20;;;24.30
65290;BMP180;51893;59.754;10.110;2022-08-01T13:47:42;101133.60;;;24.54
65290;BMP180;51893;59.754;10.110;2022-08-01T13:50:31;101135.00;;;24.80
65290;BMP180;51893;59.754;10.110;2022-08-01T13:52:59;101131.80;;;24.90
65290;BMP180;51893;59.754;10.110;2022-08-01T13:55:27;101134.40;;;25.10
65290;BMP180;51893;59.754;10.110;2022-08-01T13:58:02;101134.40;;;25.34
65290;BMP180;51893;59.754;10.110;2022-08-01T14:00:30;101135.20;;;25.50
65290;BMP180;51893;59.754;10.110;2022-08-01T14:02:58;101135.80;;;25.70
65290;BMP180;51893;59.754;10.110;2022-08-01T14:05:26;101134.80;;;25.98
65290;BMP180;51893;59.754;10.110;2022-08-01T14:07:54;101129.60;;;26.00
65290;BMP180;51893;59.754;10.110;2022-08-01T14:10:24;101127.20;;;26.00
65290;BMP180;51893;59.754;10.110;2022-08-01T14:12:55;101132.60;;;26.00
65290;BMP180;51893;59.754;10.110;2022-08-01T14:15:25;101129.60;;;26.14
65290;BMP180;51893;59.754;10.110;2022-08-01T14:18:08;101140.20;;;26.30
65290;BMP180;51893;59.754;10.110;2022-08-01T14:20:39;101145.60;;;26.04
65290;BMP180;51893;59.754;10.110;2022-08-01T14:23:08;101138.20;;;25.70
65290;BMP180;51893;59.754;10.110;2022-08-01T14:25:38;101139.20;;;25.50
65290;BMP180;51893;59.754;10.110;2022-08-01T14:28:32;101130.80;;;25.48
65290;BMP180;51893;59.754;10.110;2022-08-01T14:31:01;101125.20;;;25.70
65290;BMP180;51893;59.754;10.110;2022-08-01T14:33:29;101131.00;;;26.02
65290;BMP180;51893;59.754;10.110;2022-08-01T14:36:00;101137.60;;;26.30
65290;BMP180;51893;59.754;10.110;2022-08-01T14:38:49;101135.60;;;26.50
65290;BMP180;51893;59.754;10.110;2022-08-01T14:41:16;101134.00;;;26.64